Peshastin, WA

8:05 PM PST on December 07, 2016 (GMT -0800)
Mountain Home Lodge Leavenworth, WA | | Change Station
Active Advisory: Winter Storm Watch

Elev 2044 ft 47.57 °N, 120.65 °W | Updated 12 minutes ago

Partly Cloudy
Partly Cloudy
16.1 °F
Feels Like 16 °F
N
0.0
Wind Variable Wind from ESE

Today
High -- | Low -- °F
--% Chance of Precip.
Yesterday
High -- | Low -- °F
Precip. -- in
Pressure 30.56 in
Visibility 10.0 miles
Clouds Overcast 3700 ft
Windchill 16 °F
Dew Point 10 °F
Humidity 76%
Rainfall 0.00 in
Snow Depth Not available.
7:36 AM 4:11 PM
First Quarter, 59% visible
METAR KEAT 080355Z AUTO 33003KT 10SM OVC037 M07/M12 A3050 RMK AO2 SLP348 T10671122
Pressure 30.56 in
Visibility 10.0 miles
Clouds Overcast 3700 ft
Windchill 16 °F
Dew Point 10 °F
Humidity 76%
Rainfall 0.00 in
Snow Depth Not available.
7:36 AM 4:11 PM
First Quarter, 59% visible
METAR KEAT 080355Z AUTO 33003KT 10SM OVC037 M07/M12 A3050 RMK AO2 SLP348 T10671122

10-Day Weather Forecast

Almanac

Astronomy

Dec. 07, 2016 Rise Set
Actual Time
Civil Twilight
Nautical Twilight
Astronomical Twilight
Moon
Length of Visible Light
Length of Day
Tomorrow will be .
, % of the Moon is Illuminated

Today's Extremes

State Highs State Lows

Community

WunderPhotos

Upload Photos

1,956,259 photos uploaded!

WunderBlog® & News

Nearby

Air Quality

  Air Quality AQ Index Pollutant
Not available.

Snow Depth

Station Depth Elevation

Earthquake Activity

City Distance Mag. Time & Date
Minimum magnitude displayed is 2.5.

Coastal Water Temperatures

Place Temperature

Stations

Nearby Weather Stations

Station Location Temp. Windchill Dew Point Humidity Wind Precip. Elev Updated Type
                   

Watches & Warnings

Winter Storm Watch
Issued: 2:21 PM PST Dec. 7, 2016 – National Weather Service

... Winter Storm Watch remains in effect from Thursday afternoon
through Friday afternoon...

* locations... Leavenworth, Mazama, Twisp, Winthrop, Stehekin,
Conconully, Blewett Pass, and Loup Loup pass.

* Snow accumulations... 5 to 8 inches of snow in the valleys and
in the mountains 10 to 20 inches.

* Timing... light snow will begin in the Cascades Thursday
afternoon, then increase in intensity Thursday night before
decreasing Friday evening. More snow is possible Saturday.

* Impacts... heavy snow accumulation on roads will make travel
difficult and treacherous especially approaching mountain
passes.

* Web page: for a detailed view of the hazard area visit
http://www.Wrh.NOAA.Gov/map/?Wfo=otx.

Precautionary/preparedness actions...

A Winter Storm Watch means there is a potential for significant
snow accumulations that may impact travel. Continue to monitor
the latest forecasts.